Time;durP1;ratioP1;P1;durP2;ratioP2;P2;SDS_P1;SDS_P2;PMS_P1;PMS_P2;Temp;Humidity;BMP_temperature;BMP_pressure;BME280_temperature;BME280_humidity;BME280_pressure;Samples;Min_cycle;Max_cycle;Signal;HPM_P1;HPM_P2
2022/07/08 00:01:39;;;;;;;2.25;1.90;;;;;;;;;;1744970;82;21005;-65
2022/07/08 00:04:06;;;;;;;2.22;2.00;;;;;;;;;;1744591;82;22191;-65
2022/07/08 00:06:33;;;;;;;2.15;1.87;;;;;;;;;;1744853;82;21129;-66
2022/07/08 00:08:59;;;;;;;3.05;2.10;;;;;;;;;;1744561;82;21108;-66
2022/07/08 00:11:26;;;;;;;2.58;1.98;;;;;;;;;;1744944;82;21062;-65
2022/07/08 00:13:51;;;;;;;2.37;2.10;;;;;;;;;;1744620;82;21018;-65
2022/07/08 00:16:19;;;;;;;2.65;1.90;;;;;;;;;;1744799;82;22047;-66
2022/07/08 00:18:45;;;;;;;2.72;1.90;;;;;;;;;;1744722;82;21104;-66
2022/07/08 00:21:11;;;;;;;2.05;1.87;;;;;;;;;;1744641;82;21053;-65
2022/07/08 00:23:38;;;;;;;2.95;1.98;;;;;;;;;;1744752;82;21072;-66
2022/07/08 00:26:05;;;;;;;2.20;1.92;;;;;;;;;;1744668;82;21072;-66
2022/07/08 00:28:32;;;;;;;4.90;1.90;;;;;;;;;;1744437;82;21153;-66
2022/07/08 00:30:58;;;;;;;1.95;1.80;;;;;;;;;;1745004;82;21065;-66
2022/07/08 00:33:25;;;;;;;2.37;1.98;;;;;;;;;;1744686;81;21078;-66
2022/07/08 00:35:51;;;;;;;2.27;1.82;;;;;;;;;;1745050;82;21128;-66
2022/07/08 00:38:17;;;;;;;2.27;1.90;;;;;;;;;;1744474;82;21006;-66
2022/07/08 00:40:43;;;;;;;1.72;1.62;;;;;;;;;;1744688;82;21025;-66
2022/07/08 00:43:28;;;;;;;2.30;2.00;;;;;;;;;;1745014;82;21529;-66
2022/07/08 00:45:55;;;;;;;2.95;1.90;;;;;;;;;;1744872;82;21053;-66
2022/07/08 00:48:21;;;;;;;3.22;2.00;;;;;;;;;;1742298;82;21628;-66
2022/07/08 00:50:47;;;;;;;3.20;1.77;;;;;;;;;;1742350;82;21052;-66
2022/07/08 00:53:13;;;;;;;1.70;1.60;;;;;;;;;;1743789;82;21591;-66
2022/07/08 00:55:39;;;;;;;3.12;1.85;;;;;;;;;;1736181;82;21096;-66
2022/07/08 00:58:05;;;;;;;2.30;1.70;;;;;;;;;;1748591;80;21100;-66
2022/07/08 01:03:20;;;;;;;1.87;1.75;;;;;;;;;;1717911;80;21194;-65
2022/07/08 01:05:47;;;;;;;2.00;1.80;;;;;;;;;;1712550;83;21077;-65
2022/07/08 01:08:13;;;;;;;2.37;1.90;;;;;;;;;;1693796;83;21616;-65
2022/07/08 01:10:40;;;;;;;2.75;2.10;;;;;;;;;;1697861;83;21112;-64
2022/07/08 01:13:06;;;;;;;2.20;2.00;;;;;;;;;;1716270;83;21069;-65
2022/07/08 01:15:33;;;;;;;2.08;1.87;;;;;;;;;;1709583;83;21572;-64
2022/07/08 01:17:59;;;;;;;2.80;2.08;;;;;;;;;;1692841;83;21080;-65
2022/07/08 01:20:26;;;;;;;2.08;1.87;;;;;;;;;;1694686;83;21042;-65
2022/07/08 01:22:52;;;;;;;2.58;2.02;;;;;;;;;;1692371;84;21533;-65
2022/07/08 01:25:18;;;;;;;2.42;2.00;;;;;;;;;;1697349;83;21057;-65
2022/07/08 01:27:44;;;;;;;2.45;1.90;;;;;;;;;;1707993;83;21018;-65
2022/07/08 01:30:11;;;;;;;2.37;2.10;;;;;;;;;;1694197;83;21049;-65
2022/07/08 01:32:41;;;;;;;3.58;2.30;;;;;;;;;;1692025;85;21623;-65
2022/07/08 01:35:07;;;;;;;4.65;2.30;;;;;;;;;;1692424;84;21568;-65
2022/07/08 01:37:34;;;;;;;2.37;2.15;;;;;;;;;;1698359;83;21556;-64
2022/07/08 01:40:00;;;;;;;4.37;3.05;;;;;;;;;;1699826;83;21062;-64
2022/07/08 01:42:26;;;;;;;3.62;2.77;;;;;;;;;;1692537;83;21049;-64
2022/07/08 01:44:53;;;;;;;4.00;2.60;;;;;;;;;;1721554;83;21036;-64
2022/07/08 01:47:19;;;;;;;3.75;2.52;;;;;;;;;;1702156;83;21121;-65
2022/07/08 01:49:45;;;;;;;2.80;2.33;;;;;;;;;;1692253;83;22162;-64
2022/07/08 01:52:11;;;;;;;3.05;2.40;;;;;;;;;;1693741;83;21092;-65
2022/07/08 01:54:38;;;;;;;2.83;2.22;;;;;;;;;;1715560;83;21045;-65
2022/07/08 01:57:18;;;;;;;4.58;2.15;;;;;;;;;;1707896;83;21505;-65
2022/07/08 01:59:45;;;;;;;2.95;2.42;;;;;;;;;;1693022;83;21069;-65
2022/07/08 02:02:12;;;;;;;3.08;2.30;;;;;;;;;;1692547;83;21572;-65
2022/07/08 02:04:39;;;;;;;2.80;2.22;;;;;;;;;;1711795;82;21125;-65
2022/07/08 02:07:06;;;;;;;2.12;1.92;;;;;;;;;;1722401;83;21512;-65
2022/07/08 02:09:33;;;;;;;2.58;2.27;;;;;;;;;;1721544;83;21076;-65
2022/07/08 02:12:18;;;;;;;3.30;2.40;;;;;;;;;;1722069;83;21072;-65
2022/07/08 02:14:46;;;;;;;2.75;2.12;;;;;;;;;;1722194;83;21084;-65
2022/07/08 02:17:14;;;;;;;4.42;2.42;;;;;;;;;;1717246;83;21034;-65
2022/07/08 02:19:41;;;;;;;3.02;2.30;;;;;;;;;;1720311;83;21076;-65
2022/07/08 02:22:08;;;;;;;2.60;2.17;;;;;;;;;;1717503;83;21096;-66
2022/07/08 02:24:35;;;;;;;3.05;2.30;;;;;;;;;;1718167;83;21593;-65
2022/07/08 02:27:01;;;;;;;5.22;3.20;;;;;;;;;;1718476;83;20981;-65
2022/07/08 02:29:27;;;;;;;6.00;3.00;;;;;;;;;;1718542;83;21544;-66
2022/07/08 02:31:54;;;;;;;3.95;2.70;;;;;;;;;;1722314;83;21021;-66
2022/07/08 02:34:20;;;;;;;5.03;2.60;;;;;;;;;;1722474;83;21065;-66
2022/07/08 02:36:46;;;;;;;6.20;2.50;;;;;;;;;;1719935;83;21041;-66
2022/07/08 02:39:13;;;;;;;3.58;2.50;;;;;;;;;;1722217;83;22143;-65
2022/07/08 02:41:40;;;;;;;2.67;2.40;;;;;;;;;;1722152;83;21060;-65
2022/07/08 02:44:06;;;;;;;3.58;2.50;;;;;;;;;;1722246;83;21029;-66
2022/07/08 02:46:33;;;;;;;3.80;2.90;;;;;;;;;;1720752;83;21093;-65
2022/07/08 02:48:59;;;;;;;3.98;2.60;;;;;;;;;;1720809;83;22084;-65
2022/07/08 02:51:25;;;;;;;3.60;2.75;;;;;;;;;;1716915;83;21029;-66
2022/07/08 02:53:52;;;;;;;5.50;3.55;;;;;;;;;;1716783;83;21033;-66
2022/07/08 02:56:18;;;;;;;5.35;3.62;;;;;;;;;;1717320;83;21073;-66
2022/07/08 02:58:44;;;;;;;4.97;3.20;;;;;;;;;;1720277;83;21100;-65
2022/07/08 03:01:10;;;;;;;6.37;3.33;;;;;;;;;;1716745;83;21022;-65
2022/07/08 03:03:38;;;;;;;4.87;3.30;;;;;;;;;;1717168;82;21564;-66
2022/07/08 03:06:05;;;;;;;4.95;2.80;;;;;;;;;;1714883;83;21045;-65
2022/07/08 03:08:31;;;;;;;4.33;2.35;;;;;;;;;;1713797;83;21529;-65
2022/07/08 03:10:57;;;;;;;4.28;2.90;;;;;;;;;;1712176;83;21069;-65
2022/07/08 03:13:24;;;;;;;3.75;2.70;;;;;;;;;;1711529;84;21116;-65
2022/07/08 03:15:50;;;;;;;4.15;2.52;;;;;;;;;;1713306;83;21043;-65
2022/07/08 03:18:17;;;;;;;3.80;2.70;;;;;;;;;;1716613;83;21069;-65
2022/07/08 03:20:44;;;;;;;4.33;2.52;;;;;;;;;;1713104;83;21068;-65
2022/07/08 03:23:10;;;;;;;4.62;2.80;;;;;;;;;;1716401;83;21088;-65
2022/07/08 03:25:36;;;;;;;3.40;2.50;;;;;;;;;;1716945;83;21600;-65
2022/07/08 03:28:03;;;;;;;3.05;2.45;;;;;;;;;;1715926;83;21068;-65
2022/07/08 03:30:29;;;;;;;3.37;2.33;;;;;;;;;;1711530;83;21006;-65
2022/07/08 03:32:56;;;;;;;2.62;2.27;;;;;;;;;;1711611;84;21061;-65
2022/07/08 03:35:22;;;;;;;2.85;2.30;;;;;;;;;;1711226;84;21057;-65
2022/07/08 03:37:49;;;;;;;3.75;2.35;;;;;;;;;;1711612;83;21030;-65
2022/07/08 03:43:01;;;;;;;4.25;2.67;;;;;;;;;;1717015;83;21068;-64
2022/07/08 03:45:28;;;;;;;4.22;2.22;;;;;;;;;;1716527;83;21112;-64
2022/07/08 03:47:54;;;;;;;2.92;2.37;;;;;;;;;;1711228;84;21544;-64
2022/07/08 03:50:20;;;;;;;3.20;2.30;;;;;;;;;;1714558;83;21042;-64
2022/07/08 03:52:46;;;;;;;2.35;1.70;;;;;;;;;;1716930;83;21037;-64
2022/07/08 03:55:13;;;;;;;2.70;2.20;;;;;;;;;;1717144;83;21129;-65
2022/07/08 03:57:39;;;;;;;2.35;2.10;;;;;;;;;;1711750;83;21061;-64
2022/07/08 04:00:07;;;;;;;3.00;2.37;;;;;;;;;;1711739;83;21069;-64
2022/07/08 04:02:34;;;;;;;2.80;2.35;;;;;;;;;;1711560;84;21033;-64
2022/07/08 04:05:00;;;;;;;2.58;2.30;;;;;;;;;;1711206;82;21109;-64
2022/07/08 04:07:28;;;;;;;5.05;2.20;;;;;;;;;;1711537;84;21084;-64
2022/07/08 04:09:54;;;;;;;3.00;2.20;;;;;;;;;;1712127;83;22426;-64
2022/07/08 04:12:20;;;;;;;3.27;2.58;;;;;;;;;;1716915;83;21073;-65
2022/07/08 04:14:46;;;;;;;3.12;2.40;;;;;;;;;;1717215;83;21029;-63
2022/07/08 04:17:12;;;;;;;2.75;2.30;;;;;;;;;;1714504;83;21078;-66
2022/07/08 04:19:39;;;;;;;2.90;2.60;;;;;;;;;;1711496;84;21768;-64
2022/07/08 04:22:05;;;;;;;4.30;2.50;;;;;;;;;;1711607;83;21014;-64
2022/07/08 04:24:31;;;;;;;4.80;2.80;;;;;;;;;;1711510;84;20982;-65
2022/07/08 04:26:57;;;;;;;3.62;2.37;;;;;;;;;;1712948;83;21045;-66
2022/07/08 04:29:23;;;;;;;2.92;2.40;;;;;;;;;;1717010;83;21049;-66
2022/07/08 04:31:49;;;;;;;4.17;2.55;;;;;;;;;;1712283;83;21077;-65
2022/07/08 04:34:16;;;;;;;4.17;2.50;;;;;;;;;;1713491;83;21013;-66
2022/07/08 04:36:42;;;;;;;2.92;2.40;;;;;;;;;;1717067;83;21057;-65
2022/07/08 04:39:09;;;;;;;3.17;2.40;;;;;;;;;;1716578;83;21082;-65
2022/07/08 04:41:37;;;;;;;5.42;2.92;;;;;;;;;;1717180;83;21116;-65
2022/07/08 04:44:03;;;;;;;5.55;3.00;;;;;;;;;;1715449;83;21061;-64
2022/07/08 04:46:30;;;;;;;3.83;2.50;;;;;;;;;;1711385;84;21559;-64
2022/07/08 04:48:56;;;;;;;4.72;2.90;;;;;;;;;;1711851;83;21844;-64
2022/07/08 04:51:23;;;;;;;3.15;2.77;;;;;;;;;;1716745;83;21029;-64
2022/07/08 04:53:49;;;;;;;4.00;2.85;;;;;;;;;;1717225;83;21084;-64
2022/07/08 04:56:16;;;;;;;4.12;2.67;;;;;;;;;;1716974;83;21602;-64
2022/07/08 04:58:43;;;;;;;3.22;2.90;;;;;;;;;;1716610;83;21029;-66
2022/07/08 05:01:09;;;;;;;4.70;2.37;;;;;;;;;;1717620;83;21076;-65
2022/07/08 05:03:36;;;;;;;4.97;3.10;;;;;;;;;;1716886;83;21180;-65
2022/07/08 05:06:02;;;;;;;7.08;3.22;;;;;;;;;;1716774;83;21069;-65
2022/07/08 05:08:28;;;;;;;7.47;2.92;;;;;;;;;;1715889;83;21018;-65
2022/07/08 05:10:55;;;;;;;6.53;3.05;;;;;;;;;;1716945;83;21116;-65
2022/07/08 05:13:22;;;;;;;4.17;3.10;;;;;;;;;;1717010;83;21080;-66
2022/07/08 05:15:49;;;;;;;4.12;3.00;;;;;;;;;;1716628;83;21049;-66
2022/07/08 05:18:16;;;;;;;4.42;3.22;;;;;;;;;;1716940;83;21076;-66
2022/07/08 05:20:42;;;;;;;3.65;3.00;;;;;;;;;;1715334;83;21557;-66
2022/07/08 05:23:08;;;;;;;3.22;2.80;;;;;;;;;;1711504;83;20998;-66
2022/07/08 05:25:35;;;;;;;4.72;2.67;;;;;;;;;;1711120;84;21033;-65
2022/07/08 05:28:01;;;;;;;5.08;2.80;;;;;;;;;;1711301;84;21104;-66
2022/07/08 05:30:27;;;;;;;3.62;2.70;;;;;;;;;;1711506;83;21017;-66
2022/07/08 05:32:54;;;;;;;3.00;2.40;;;;;;;;;;1713439;83;21029;-66
2022/07/08 05:35:20;;;;;;;3.52;2.50;;;;;;;;;;1714561;83;21018;-65
2022/07/08 05:37:46;;;;;;;5.87;2.52;;;;;;;;;;1707857;83;21076;-65
2022/07/08 05:40:13;;;;;;;3.00;2.45;;;;;;;;;;1716790;83;21064;-66
2022/07/08 05:42:39;;;;;;;3.52;2.65;;;;;;;;;;1715370;82;21092;-66
2022/07/08 05:45:07;;;;;;;4.85;2.40;;;;;;;;;;1714086;82;21085;-64
2022/07/08 05:47:34;;;;;;;3.33;2.55;;;;;;;;;;1715732;83;21084;-65
2022/07/08 05:50:01;;;;;;;2.87;2.50;;;;;;;;;;1715546;82;21041;-65
2022/07/08 05:52:27;;;;;;;2.80;2.33;;;;;;;;;;1714024;83;21535;-66
2022/07/08 05:54:53;;;;;;;3.15;2.50;;;;;;;;;;1711918;83;21085;-65
2022/07/08 05:57:20;;;;;;;3.17;2.33;;;;;;;;;;1716817;83;21116;-65
2022/07/08 05:59:46;;;;;;;4.45;2.25;;;;;;;;;;1718500;82;21006;-66
2022/07/08 06:02:12;;;;;;;4.42;2.25;;;;;;;;;;1716006;82;21010;-66
2022/07/08 06:04:38;;;;;;;2.70;2.27;;;;;;;;;;1707441;80;21105;-65
2022/07/08 06:07:04;;;;;;;3.67;2.62;;;;;;;;;;1714452;83;21092;-65
2022/07/08 06:09:31;;;;;;;2.92;2.20;;;;;;;;;;1716878;83;21057;-65
2022/07/08 06:11:57;;;;;;;4.15;2.77;;;;;;;;;;1716508;82;21072;-65
2022/07/08 06:14:24;;;;;;;2.98;2.30;;;;;;;;;;1714174;83;21037;-65
2022/07/08 06:16:50;;;;;;;4.15;2.67;;;;;;;;;;1711820;83;21112;-67
2022/07/08 06:19:16;;;;;;;5.60;2.60;;;;;;;;;;1711573;84;22047;-67
2022/07/08 06:21:43;;;;;;;3.47;2.62;;;;;;;;;;1715213;83;21076;-67
2022/07/08 06:24:09;;;;;;;4.28;2.50;;;;;;;;;;1717265;82;21009;-67
2022/07/08 06:26:36;;;;;;;3.55;2.37;;;;;;;;;;1713499;83;21033;-66
2022/07/08 06:29:03;;;;;;;2.50;2.20;;;;;;;;;;1711296;84;21033;-67
2022/07/08 06:31:30;;;;;;;6.05;2.20;;;;;;;;;;1711550;84;21056;-67
2022/07/08 06:33:56;;;;;;;5.62;2.62;;;;;;;;;;1711528;84;21549;-67
2022/07/08 06:36:25;;;;;;;11.25;3.08;;;;;;;;;;1711439;84;21037;-65
2022/07/08 06:38:52;;;;;;;4.70;2.25;;;;;;;;;;1713905;83;21108;-66
2022/07/08 06:41:19;;;;;;;8.03;3.17;;;;;;;;;;1711811;84;21042;-66
2022/07/08 06:43:45;;;;;;;10.15;3.27;;;;;;;;;;1711470;84;20998;-65
2022/07/08 06:46:12;;;;;;;7.80;2.65;;;;;;;;;;1714255;83;21076;-65
2022/07/08 06:48:38;;;;;;;15.58;3.55;;;;;;;;;;1713032;83;21050;-65
2022/07/08 06:51:05;;;;;;;12.63;3.27;;;;;;;;;;1713246;83;21472;-65
2022/07/08 06:54:34;;;;;;;5.50;2.70;;;;;;;;;;1716401;82;21525;-66
2022/07/08 06:55:59;;;;;;;9.55;3.33;;;;;;;;;;1714010;81;21105;-66
2022/07/08 06:58:26;;;;;;;4.78;2.80;;;;;;;;;;1719466;82;21029;-66
2022/07/08 07:00:52;;;;;;;6.17;2.70;;;;;;;;;;1714657;82;21064;-66
2022/07/08 07:03:19;;;;;;;9.18;3.00;;;;;;;;;;1715404;83;22242;-67
2022/07/08 07:05:45;;;;;;;9.30;2.90;;;;;;;;;;1706715;83;21566;-65
2022/07/08 07:08:12;;;;;;;6.40;2.80;;;;;;;;;;1692822;84;21040;-73
2022/07/08 07:10:39;;;;;;;12.95;3.15;;;;;;;;;;1694740;84;21054;-67
2022/07/08 07:13:05;;;;;;;6.83;4.25;;;;;;;;;;1695724;84;21485;-68
2022/07/08 07:15:31;;;;;;;2.80;2.30;;;;;;;;;;1691951;84;21002;-66
2022/07/08 07:17:57;;;;;;;4.80;2.60;;;;;;;;;;1687715;84;21665;-65
2022/07/08 07:20:23;;;;;;;5.78;2.60;;;;;;;;;;1691675;84;21494;-66
2022/07/08 07:22:49;;;;;;;150.40;128.57;;;;;;;;;;1691194;83;21075;-65
2022/07/08 07:25:16;;;;;;;159.97;100.92;;;;;;;;;;1740737;82;21108;-66
2022/07/08 07:27:43;;;;;;;23.10;17.10;;;;;;;;;;1724665;82;21043;-65
2022/07/08 07:30:10;;;;;;;7.25;4.10;;;;;;;;;;1725489;82;21080;-64
2022/07/08 07:32:38;;;;;;;7.67;2.85;;;;;;;;;;1726699;82;21028;-69
2022/07/08 07:35:05;;;;;;;4.08;2.05;;;;;;;;;;1720389;82;21068;-72
2022/07/08 07:37:37;;;;;;;4.17;2.25;;;;;;;;;;1734213;82;22183;-72
2022/07/08 07:40:04;;;;;;;3.33;2.12;;;;;;;;;;1740376;82;21068;-70
2022/07/08 07:42:31;;;;;;;2.67;2.45;;;;;;;;;;1728969;82;21053;-70
2022/07/08 07:44:57;;;;;;;2.77;2.12;;;;;;;;;;1725774;83;21017;-71
2022/07/08 07:47:23;;;;;;;2.52;2.05;;;;;;;;;;1726243;81;21575;-69
2022/07/08 07:49:50;;;;;;;3.05;2.40;;;;;;;;;;1729723;83;21036;-70
2022/07/08 07:52:16;;;;;;;3.70;2.10;;;;;;;;;;1731521;82;21040;-71
2022/07/08 07:54:42;;;;;;;4.15;2.10;;;;;;;;;;1725164;81;21049;-71
2022/07/08 07:57:08;;;;;;;2.85;2.00;;;;;;;;;;1729124;82;21044;-71
2022/07/08 07:59:34;;;;;;;2.92;2.00;;;;;;;;;;1714502;82;21055;-70
2022/07/08 08:02:00;;;;;;;3.12;1.90;;;;;;;;;;1733329;82;21040;-69
2022/07/08 08:04:26;;;;;;;2.60;1.90;;;;;;;;;;1733348;82;21087;-68
2022/07/08 08:06:52;;;;;;;2.30;1.90;;;;;;;;;;1740996;81;21038;-68
2022/07/08 08:09:19;;;;;;;3.75;2.10;;;;;;;;;;1733813;82;21577;-70
2022/07/08 08:11:47;;;;;;;3.35;2.12;;;;;;;;;;1719849;83;21071;-72
2022/07/08 08:14:14;;;;;;;3.17;2.10;;;;;;;;;;1729454;82;21048;-66
2022/07/08 08:16:40;;;;;;;20.88;14.43;;;;;;;;;;1724477;82;21540;-65
2022/07/08 08:19:06;;;;;;;8.13;6.22;;;;;;;;;;1724514;82;21495;-65
2022/07/08 08:21:36;;;;;;;3.35;2.40;;;;;;;;;;1732032;82;21051;-63
2022/07/08 08:24:01;;;;;;;2.80;1.95;;;;;;;;;;1727241;82;20997;-64
2022/07/08 08:26:27;;;;;;;2.08;1.87;;;;;;;;;;1726716;81;21057;-64
2022/07/08 08:28:54;;;;;;;2.25;1.80;;;;;;;;;;1730283;82;21028;-64
2022/07/08 08:31:20;;;;;;;2.25;2.05;;;;;;;;;;1733471;82;21511;-64
2022/07/08 08:33:46;;;;;;;2.65;2.02;;;;;;;;;;1701259;83;21078;-70
2022/07/08 08:36:13;;;;;;;2.37;1.80;;;;;;;;;;1704461;84;21043;-68
2022/07/08 08:38:39;;;;;;;3.65;2.10;;;;;;;;;;1675851;84;21140;-68
2022/07/08 08:41:05;;;;;;;13.55;3.00;;;;;;;;;;1696743;84;21502;-66
2022/07/08 08:43:31;;;;;;;3.92;2.22;;;;;;;;;;1691672;83;21066;-66
2022/07/08 08:45:57;;;;;;;4.60;2.45;;;;;;;;;;1699982;83;21058;-65
2022/07/08 08:48:24;;;;;;;3.70;2.05;;;;;;;;;;1689161;84;21603;-68
2022/07/08 08:50:54;;;;;;;4.45;2.10;;;;;;;;;;1693235;84;21077;-69
2022/07/08 08:53:23;;;;;;;4.20;2.22;;;;;;;;;;1694574;85;21050;-69
2022/07/08 08:55:50;;;;;;;9.45;2.52;;;;;;;;;;1657507;86;21049;-69
2022/07/08 08:58:17;;;;;;;5.70;2.40;;;;;;;;;;1662282;85;21109;-69
2022/07/08 09:00:43;;;;;;;9.35;2.42;;;;;;;;;;1692824;83;21025;-67
2022/07/08 09:03:10;;;;;;;7.85;2.45;;;;;;;;;;1695502;84;21151;-66
2022/07/08 09:18:15;;;;;;;5.45;2.00;;;;;;;;;;1790939;79;23560;-65
2022/07/08 09:20:48;;;;;;;2.65;1.80;;;;;;;;;;1790805;78;21001;-62
2022/07/08 09:23:15;;;;;;;3.60;1.90;;;;;;;;;;1793728;80;21025;-62
2022/07/08 09:25:41;;;;;;;3.05;1.82;;;;;;;;;;1772133;80;21020;-61
2022/07/08 09:28:08;;;;;;;2.33;1.70;;;;;;;;;;1773024;80;21522;-61
2022/07/08 09:30:34;;;;;;;4.33;1.80;;;;;;;;;;1793101;78;21040;-62
2022/07/08 09:33:00;;;;;;;4.75;1.70;;;;;;;;;;1796140;78;21059;-62
2022/07/08 09:35:33;;;;;;;3.65;1.82;;;;;;;;;;1794975;78;21025;-65
2022/07/08 09:38:06;;;;;;;2.12;1.85;;;;;;;;;;1793359;80;20989;-64
2022/07/08 09:40:32;;;;;;;5.35;2.12;;;;;;;;;;1791615;80;21008;-64
2022/07/08 09:43:02;;;;;;;2.22;1.90;;;;;;;;;;1791687;79;21060;-64
2022/07/08 09:45:29;;;;;;;3.83;1.80;;;;;;;;;;1791763;80;21076;-65
2022/07/08 09:48:02;;;;;;;3.08;2.20;;;;;;;;;;1791590;80;20949;-65
2022/07/08 09:50:36;;;;;;;2.15;1.87;;;;;;;;;;1793264;80;20989;-65
2022/07/08 09:55:58;;;;;;;2.22;1.80;;;;;;;;;;1697920;83;21077;-69
2022/07/08 09:58:26;;;;;;;3.45;2.00;;;;;;;;;;1716905;82;21015;-69
2022/07/08 10:00:53;;;;;;;2.83;1.60;;;;;;;;;;1695387;83;21047;-68
2022/07/08 10:03:19;;;;;;;5.30;2.20;;;;;;;;;;1699736;84;21115;-69
2022/07/08 10:05:46;;;;;;;3.08;2.10;;;;;;;;;;1699633;83;21032;-70
2022/07/08 10:08:12;;;;;;;8.13;2.45;;;;;;;;;;1699980;83;21089;-69
2022/07/08 10:10:39;;;;;;;9.80;3.10;;;;;;;;;;1700166;83;22118;-69
2022/07/08 10:13:05;;;;;;;3.02;1.90;;;;;;;;;;1700562;84;21061;-70
2022/07/08 10:15:32;;;;;;;12.60;3.30;;;;;;;;;;1700126;83;21075;-70
2022/07/08 10:18:12;;;;;;;6.72;2.50;;;;;;;;;;1696459;83;20993;-66
2022/07/08 10:20:39;;;;;;;12.30;8.93;;;;;;;;;;1699138;83;21109;-66
2022/07/08 10:23:07;;;;;;;11.28;6.85;;;;;;;;;;1697985;83;21576;-66
2022/07/08 10:25:33;;;;;;;8.03;2.77;;;;;;;;;;1694855;83;21087;-67
2022/07/08 10:28:07;;;;;;;5.53;2.58;;;;;;;;;;1697767;83;21084;-67
2022/07/08 10:30:46;;;;;;;2.52;2.02;;;;;;;;;;1695449;83;20990;-69
2022/07/08 10:33:20;;;;;;;15.05;3.45;;;;;;;;;;1696061;83;21583;-69
2022/07/08 10:36:02;;;;;;;4.30;2.45;;;;;;;;;;1688074;83;21074;-68
2022/07/08 10:38:30;;;;;;;3.02;1.90;;;;;;;;;;1696624;83;21527;-68
2022/07/08 10:40:58;;;;;;;3.77;2.17;;;;;;;;;;1698216;83;21057;-67
2022/07/08 10:43:27;;;;;;;3.42;2.17;;;;;;;;;;1689825;83;21097;-67
2022/07/08 10:46:00;;;;;;;3.87;2.08;;;;;;;;;;1697893;83;21492;-67
2022/07/08 10:48:28;;;;;;;2.58;1.92;;;;;;;;;;1697087;83;21028;-67
2022/07/08 10:50:54;;;;;;;3.80;2.05;;;;;;;;;;1696647;83;21099;-67
2022/07/08 10:53:20;;;;;;;3.33;2.00;;;;;;;;;;1697189;83;21080;-67
2022/07/08 10:55:47;;;;;;;2.27;1.87;;;;;;;;;;1664998;85;21602;-68
2022/07/08 10:58:13;;;;;;;2.42;2.15;;;;;;;;;;1663053;86;21062;-68
2022/07/08 11:00:40;;;;;;;2.47;2.08;;;;;;;;;;1663904;86;21091;-67
2022/07/08 11:03:07;;;;;;;4.62;2.05;;;;;;;;;;1656296;86;21112;-67
2022/07/08 11:05:39;;;;;;;2.30;2.00;;;;;;;;;;1656637;86;21532;-66
2022/07/08 11:08:20;;;;;;;5.00;2.10;;;;;;;;;;1668360;86;21024;-67
2022/07/08 11:10:47;;;;;;;3.45;2.20;;;;;;;;;;1657054;85;21118;-68
2022/07/08 11:13:14;;;;;;;5.12;2.45;;;;;;;;;;1657638;86;21053;-66
2022/07/08 11:15:40;;;;;;;3.87;2.10;;;;;;;;;;1672492;84;21563;-67
2022/07/08 11:18:07;;;;;;;2.90;2.30;;;;;;;;;;1673506;84;21047;-67
2022/07/08 11:20:35;;;;;;;3.30;2.25;;;;;;;;;;1674421;84;21022;-68
2022/07/08 11:23:04;;;;;;;2.30;2.10;;;;;;;;;;1648738;85;21037;-69
2022/07/08 11:25:30;;;;;;;3.75;2.10;;;;;;;;;;1656389;86;21076;-68
2022/07/08 11:27:56;;;;;;;3.85;3.55;;;;;;;;;;1668266;85;21048;-67
2022/07/08 11:30:23;;;;;;;13.30;9.75;;;;;;;;;;1686539;85;21111;-66
2022/07/08 11:32:51;;;;;;;5.33;4.80;;;;;;;;;;1678651;85;21567;-66
2022/07/08 11:35:19;;;;;;;2.45;2.00;;;;;;;;;;1663637;86;20993;-68
2022/07/08 11:37:46;;;;;;;2.72;2.20;;;;;;;;;;1663139;86;21057;-68
2022/07/08 11:40:13;;;;;;;2.37;2.17;;;;;;;;;;1647001;86;21100;-68
2022/07/08 11:42:40;;;;;;;3.67;2.20;;;;;;;;;;1662779;86;21488;-69
2022/07/08 11:45:08;;;;;;;4.35;2.33;;;;;;;;;;1663706;86;21088;-68
2022/07/08 11:47:34;;;;;;;3.17;2.22;;;;;;;;;;1664839;86;21024;-69
2022/07/08 11:50:01;;;;;;;3.83;2.27;;;;;;;;;;1664763;86;21120;-68
2022/07/08 11:52:27;;;;;;;3.98;2.12;;;;;;;;;;1663747;86;21080;-67
2022/07/08 11:54:54;;;;;;;3.83;2.42;;;;;;;;;;1664024;85;21162;-68
2022/07/08 11:57:21;;;;;;;2.58;2.20;;;;;;;;;;1661340;86;21137;-67
2022/07/08 11:59:49;;;;;;;6.85;2.37;;;;;;;;;;1668673;85;21359;-69
2022/07/08 12:02:18;;;;;;;2.40;2.20;;;;;;;;;;1672602;85;21040;-68
2022/07/08 12:04:49;;;;;;;4.30;2.50;;;;;;;;;;1667211;85;21033;-69
2022/07/08 12:07:19;;;;;;;21.48;18.12;;;;;;;;;;1692274;85;21020;-66
2022/07/08 12:09:53;;;;;;;12.73;11.10;;;;;;;;;;1692598;85;21021;-65
2022/07/08 12:12:23;;;;;;;4.47;2.55;;;;;;;;;;1655565;86;21024;-68
2022/07/08 12:14:50;;;;;;;2.83;2.10;;;;;;;;;;1661631;86;21610;-69
2022/07/08 12:17:23;;;;;;;3.95;2.20;;;;;;;;;;1661215;86;21204;-66
2022/07/08 12:19:52;;;;;;;3.05;2.20;;;;;;;;;;1681337;85;21064;-67
2022/07/08 12:22:17;;;;;;;2.70;1.95;;;;;;;;;;1682959;85;21101;-69
2022/07/08 12:24:44;;;;;;;2.55;2.35;;;;;;;;;;1628980;87;21083;-69
2022/07/08 12:27:11;;;;;;;3.40;2.20;;;;;;;;;;1682674;84;21025;-68
2022/07/08 12:29:38;;;;;;;3.72;2.05;;;;;;;;;;1677340;84;21043;-70
2022/07/08 12:32:05;;;;;;;3.42;2.20;;;;;;;;;;1684216;83;21036;-65
2022/07/08 12:34:32;;;;;;;2.60;2.40;;;;;;;;;;1700444;84;21109;-65
2022/07/08 12:37:14;;;;;;;2.85;2.27;;;;;;;;;;1675814;84;21063;-66
2022/07/08 12:39:40;;;;;;;5.10;2.30;;;;;;;;;;1684206;84;21058;-66
2022/07/08 12:42:06;;;;;;;2.85;2.20;;;;;;;;;;1678707;84;21167;-74
2022/07/08 12:44:39;;;;;;;3.02;2.20;;;;;;;;;;1665919;85;21601;-68
2022/07/08 12:47:05;;;;;;;2.87;2.25;;;;;;;;;;1689633;84;22236;-69
2022/07/08 12:49:32;;;;;;;2.30;2.10;;;;;;;;;;1682032;85;21059;-69
2022/07/08 12:51:58;;;;;;;2.90;2.20;;;;;;;;;;1663556;85;21028;-69
2022/07/08 12:54:24;;;;;;;4.35;2.47;;;;;;;;;;1657797;85;21079;-68
2022/07/08 12:56:51;;;;;;;4.45;2.20;;;;;;;;;;1687342;84;21155;-68
2022/07/08 12:59:17;;;;;;;3.10;2.20;;;;;;;;;;1670253;85;21535;-67
2022/07/08 13:01:43;;;;;;;3.25;2.60;;;;;;;;;;1673231;84;21044;-71
2022/07/08 13:04:09;;;;;;;4.40;2.30;;;;;;;;;;1694487;83;21028;-65
2022/07/08 13:06:35;;;;;;;11.22;7.90;;;;;;;;;;1670789;84;21131;-71
2022/07/08 13:09:02;;;;;;;29.75;24.00;;;;;;;;;;1671764;84;21055;-72
2022/07/08 13:11:28;;;;;;;2.95;2.37;;;;;;;;;;1665223;84;21028;-72
2022/07/08 13:13:55;;;;;;;2.98;2.40;;;;;;;;;;1665998;86;21476;-65
2022/07/08 13:16:22;;;;;;;3.15;2.42;;;;;;;;;;1671214;84;21475;-66
2022/07/08 13:18:48;;;;;;;6.03;2.90;;;;;;;;;;1668604;85;21024;-65
2022/07/08 13:21:14;;;;;;;4.55;2.33;;;;;;;;;;1671021;84;21118;-64
2022/07/08 13:23:41;;;;;;;5.00;2.27;;;;;;;;;;1687704;84;21026;-65
2022/07/08 13:26:07;;;;;;;4.60;2.60;;;;;;;;;;1670355;84;21548;-64
2022/07/08 13:28:33;;;;;;;6.30;2.58;;;;;;;;;;1676011;84;21038;-65
2022/07/08 13:31:01;;;;;;;3.22;2.42;;;;;;;;;;1673673;84;21100;-65
2022/07/08 13:33:28;;;;;;;3.70;2.42;;;;;;;;;;1659368;86;21054;-64
2022/07/08 13:35:54;;;;;;;3.60;2.30;;;;;;;;;;1668382;84;21149;-64
2022/07/08 13:38:20;;;;;;;3.12;2.50;;;;;;;;;;1669106;86;21116;-64
2022/07/08 13:40:47;;;;;;;4.28;2.33;;;;;;;;;;1670529;84;21089;-64
2022/07/08 13:43:14;;;;;;;2.77;2.40;;;;;;;;;;1675803;84;21102;-64
2022/07/08 13:45:40;;;;;;;2.65;2.35;;;;;;;;;;1688823;84;21505;-64
2022/07/08 13:48:07;;;;;;;4.75;2.42;;;;;;;;;;1681005;84;21547;-64
2022/07/08 13:50:33;;;;;;;3.33;2.40;;;;;;;;;;1669159;84;21832;-65
2022/07/08 13:52:59;;;;;;;3.60;2.27;;;;;;;;;;1665025;84;21072;-64
2022/07/08 13:55:25;;;;;;;3.40;2.27;;;;;;;;;;1660163;85;21044;-65
2022/07/08 13:57:52;;;;;;;14.63;12.63;;;;;;;;;;1643178;86;21067;-63
2022/07/08 14:00:18;;;;;;;18.77;14.47;;;;;;;;;;1653905;86;21088;-62
2022/07/08 14:02:44;;;;;;;5.40;4.50;;;;;;;;;;1641356;86;21128;-63
2022/07/08 14:05:10;;;;;;;3.42;2.33;;;;;;;;;;1640690;86;21047;-64
2022/07/08 14:07:37;;;;;;;3.17;2.25;;;;;;;;;;1649919;86;21067;-66
2022/07/08 14:10:07;;;;;;;4.83;2.30;;;;;;;;;;1645912;86;21072;-66
2022/07/08 14:12:34;;;;;;;2.35;2.02;;;;;;;;;;1649604;86;21080;-66
2022/07/08 14:15:01;;;;;;;3.17;2.52;;;;;;;;;;1641436;86;21056;-68
2022/07/08 14:17:28;;;;;;;3.20;2.45;;;;;;;;;;1639340;86;21100;-67
2022/07/08 14:19:55;;;;;;;2.27;2.00;;;;;;;;;;1631416;86;21095;-67
2022/07/08 14:22:21;;;;;;;3.60;2.00;;;;;;;;;;1637682;86;21079;-66
2022/07/08 14:24:48;;;;;;;2.83;2.10;;;;;;;;;;1647558;86;21084;-66
2022/07/08 14:27:13;;;;;;;2.58;2.10;;;;;;;;;;1641677;86;21040;-66
2022/07/08 14:29:39;;;;;;;3.55;2.10;;;;;;;;;;1639958;87;21036;-65
2022/07/08 14:32:06;;;;;;;3.27;2.08;;;;;;;;;;1641446;86;21503;-64
2022/07/08 14:34:32;;;;;;;5.78;2.22;;;;;;;;;;1644757;86;21039;-63
2022/07/08 14:36:59;;;;;;;3.42;2.15;;;;;;;;;;1640760;86;21627;-64
2022/07/08 14:39:25;;;;;;;7.95;5.92;;;;;;;;;;1639686;87;21028;-63
2022/07/08 14:41:51;;;;;;;3.25;2.80;;;;;;;;;;1651047;86;21134;-64
2022/07/08 14:44:17;;;;;;;2.90;2.10;;;;;;;;;;1652377;86;21105;-64
2022/07/08 14:46:45;;;;;;;4.53;2.37;;;;;;;;;;1646976;86;21032;-66
2022/07/08 14:49:12;;;;;;;4.97;2.47;;;;;;;;;;1643124;86;21075;-66
2022/07/08 14:51:38;;;;;;;4.20;2.40;;;;;;;;;;1649865;86;21599;-65
2022/07/08 14:54:04;;;;;;;2.47;2.02;;;;;;;;;;1670642;84;21087;-66
2022/07/08 14:56:31;;;;;;;3.10;2.33;;;;;;;;;;1669782;84;21115;-67
2022/07/08 14:58:58;;;;;;;3.02;2.10;;;;;;;;;;1675955;84;21075;-66
2022/07/08 15:01:24;;;;;;;2.77;2.15;;;;;;;;;;1665944;85;21091;-66